Time;durP1;ratioP1;P1;durP2;ratioP2;P2;SDS_P1;SDS_P2;PMS_P1;PMS_P2;Temp;Humidity;BMP_temperature;BMP_pressure;BME280_temperature;BME280_humidity;BME280_pressure;Samples;Min_cycle;Max_cycle;Signal;HPM_P1;HPM_P2
2022/03/23 00:00:36;;;;;;;;;;;;;;;-144.19;100.00;78764.75;5049333;28;20354;-83
2022/03/23 00:03:09;;;;;;;;;;;;;;;-144.19;100.00;78749.00;5050587;28;20446;-83
2022/03/23 00:06:00;;;;;;;;;;;;;;;-144.19;100.00;78784.44;5049239;28;19960;-83
2022/03/23 00:08:58;;;;;;;;;;;;;;;-144.19;100.00;78788.38;5049193;28;19925;-83
2022/03/23 00:11:31;;;;;;;;;;;;;;;-144.19;100.00;78782.47;5050078;28;19926;-83
2022/03/23 00:14:15;;;;;;;;;;;;;;;-144.19;100.00;78823.84;5047241;28;19947;-83
2022/03/23 00:16:42;;;;;;;;;;;;;;;-144.19;100.00;78835.66;5049572;28;19925;-83
2022/03/23 00:19:54;;;;;;;;;;;;;;;-144.19;100.00;78839.59;5050958;28;20470;-83
2022/03/23 00:22:30;;;;;;;;;;;;;;;-144.19;100.00;78861.25;5049401;28;19925;-83
2022/03/23 00:24:57;;;;;;;;;;;;;;;-144.19;100.00;78857.31;5049744;28;19988;-82
2022/03/23 00:27:26;;;;;;;;;;;;;;;-144.19;100.00;78890.81;5049022;28;19996;-83
2022/03/23 00:30:01;;;;;;;;;;;;;;;-144.19;100.00;78871.13;5048373;28;19925;-83
2022/03/23 00:32:28;;;;;;;;;;;;;;;-144.19;100.00;78859.28;5049158;28;19932;-83
2022/03/23 00:34:55;;;;;;;;;;;;;;;-144.19;100.00;78837.63;5050306;28;19925;-83
2022/03/23 00:37:23;;;;;;;;;;;;;;;-144.19;100.00;78847.47;5046205;28;19925;-83
2022/03/23 00:39:50;;;;;;;;;;;;;;;-144.19;100.00;78861.25;5034100;28;19941;-83
2022/03/23 00:42:16;;;;;;;;;;;;;;;-144.19;100.00;78886.88;5031569;28;19925;-83
2022/03/23 00:44:42;;;;;;;;;;;;;;;-144.19;100.00;78894.75;5033689;28;19925;-83
2022/03/23 00:47:09;;;;;;;;;;;;;;;-144.19;100.00;78882.94;5039919;28;19935;-83
2022/03/23 00:49:36;;;;;;;;;;;;;;;-144.19;100.00;78882.94;5043678;28;19931;-83
2022/03/23 00:52:05;;;;;;;;;;;;;;;-144.19;100.00;78892.78;5041759;28;19926;-83
2022/03/23 00:54:34;;;;;;;;;;;;;;;-144.19;100.00;78902.63;5041945;28;19929;-82
2022/03/23 00:57:01;;;;;;;;;;;;;;;-144.19;100.00;78910.50;5042106;28;19925;-83
2022/03/23 00:59:28;;;;;;;;;;;;;;;-144.19;100.00;78882.94;5041193;28;19925;-84
2022/03/23 01:01:54;;;;;;;;;;;;;;;-144.19;100.00;78896.72;5042141;28;19947;-83
2022/03/23 01:04:20;;;;;;;;;;;;;;;-144.19;100.00;78875.06;5043307;28;19925;-83
2022/03/23 01:06:47;;;;;;;;;;;;;;;-144.19;100.00;78859.28;5041663;28;19931;-83
2022/03/23 01:09:13;;;;;;;;;;;;;;;-144.19;100.00;78863.22;5041557;28;19996;-83
2022/03/23 01:11:39;;;;;;;;;;;;;;;-144.19;100.00;78873.09;5042249;28;20377;-83
2022/03/23 01:14:06;;;;;;;;;;;;;;;-144.19;100.00;78882.94;5040184;28;19930;-83
2022/03/23 01:16:33;;;;;;;;;;;;;;;-144.19;100.00;78890.81;5042328;28;19948;-83
2022/03/23 01:18:59;;;;;;;;;;;;;;;-144.19;100.00;78896.72;5023109;28;19935;-83
2022/03/23 01:21:26;;;;;;;;;;;;;;;-144.19;100.00;78906.56;5015892;28;19926;-83
2022/03/23 01:23:52;;;;;;;;;;;;;;;-144.19;100.00;78904.59;5021057;28;19925;-83
2022/03/23 01:26:19;;;;;;;;;;;;;;;-144.19;100.00;78884.91;5019840;28;20024;-83
2022/03/23 01:28:45;;;;;;;;;;;;;;;-144.19;100.00;78894.75;5021587;28;19932;-83
2022/03/23 01:31:11;;;;;;;;;;;;;;;-144.19;100.00;78879.00;5020733;28;20294;-83
2022/03/23 01:33:38;;;;;;;;;;;;;;;-144.19;100.00;78902.63;5023266;28;20035;-85
2022/03/23 01:36:04;;;;;;;;;;;;;;;-144.19;100.00;78918.38;5039474;28;20327;-83
2022/03/23 01:38:30;;;;;;;;;;;;;;;-144.19;100.00;78914.44;5038437;28;20019;-83
2022/03/23 01:40:57;;;;;;;;;;;;;;;-144.19;100.00;78940.03;5039360;28;19929;-83
2022/03/23 01:43:24;;;;;;;;;;;;;;;-144.19;100.00;78942.00;5038687;28;20371;-83
2022/03/23 01:45:50;;;;;;;;;;;;;;;-144.19;100.00;78945.94;5040067;28;19936;-83
2022/03/23 01:48:16;;;;;;;;;;;;;;;-144.19;100.00;78949.91;5037364;28;19979;-83
2022/03/23 01:50:43;;;;;;;;;;;;;;;-144.19;100.00;78989.28;5038851;28;19952;-83
2022/03/23 01:53:09;;;;;;;;;;;;;;;-144.19;100.00;78975.50;5035963;28;19968;-83
2022/03/23 01:55:35;;;;;;;;;;;;;;;-144.19;100.00;78981.41;5038164;28;19932;-84
2022/03/23 01:58:02;;;;;;;;;;;;;;;-144.19;100.00;79010.94;5039265;28;19925;-83
2022/03/23 02:00:28;;;;;;;;;;;;;;;-144.19;100.00;78977.47;5038744;28;19933;-83
2022/03/23 02:02:55;;;;;;;;;;;;;;;-144.19;100.00;78997.16;5037716;28;19925;-83
2022/03/23 02:05:21;;;;;;;;;;;;;;;-144.19;100.00;78981.41;5036108;28;19932;-82
2022/03/23 02:07:48;;;;;;;;;;;;;;;-144.19;100.00;78969.59;5037770;28;20392;-83
2022/03/23 02:10:15;;;;;;;;;;;;;;;-144.19;100.00;78963.69;5038254;28;20005;-83
2022/03/23 02:12:42;;;;;;;;;;;;;;;-144.19;100.00;78993.22;5037829;28;19932;-83
2022/03/23 02:15:12;;;;;;;;;;;;;;;-144.19;100.00;78983.38;5039451;28;19925;-82
2022/03/23 02:17:39;;;;;;;;;;;;;;;-144.19;100.00;78961.72;5035901;28;20012;-83
2022/03/23 02:20:06;;;;;;;;;;;;;;;-144.19;100.00;78951.88;5020234;28;19929;-83
2022/03/23 02:22:32;;;;;;;;;;;;;;;-144.19;100.00;78965.66;5019867;28;20396;-83
2022/03/23 02:24:59;;;;;;;;;;;;;;;-144.19;100.00;78989.28;5019259;28;20398;-82
2022/03/23 02:27:25;;;;;;;;;;;;;;;-144.19;100.00;79016.84;5020679;28;19926;-84
2022/03/23 02:29:53;;;;;;;;;;;;;;;-144.19;100.00;79008.97;5021061;28;19926;-83
2022/03/23 02:32:20;;;;;;;;;;;;;;;-144.19;100.00;79032.63;5019947;28;19951;-83
2022/03/23 02:34:46;;;;;;;;;;;;;;;-144.19;100.00;79028.69;5033711;28;19925;-84
2022/03/23 02:37:12;;;;;;;;;;;;;;;-144.19;100.00;79046.41;5040275;28;19925;-82
2022/03/23 02:39:38;;;;;;;;;;;;;;;-144.19;100.00;79073.97;5039869;28;19947;-84
2022/03/23 02:42:05;;;;;;;;;;;;;;;-144.19;100.00;79070.03;5038829;28;19925;-83
2022/03/23 02:44:32;;;;;;;;;;;;;;;-144.19;100.00;79048.38;5037924;28;19935;-83
2022/03/23 02:47:01;;;;;;;;;;;;;;;-144.19;100.00;79075.94;5038029;28;19936;-83
2022/03/23 02:49:28;;;;;;;;;;;;;;;-144.19;100.00;79107.47;5037923;28;19925;-83
2022/03/23 02:51:54;;;;;;;;;;;;;;;-144.19;100.00;79079.88;5039268;28;20319;-82
2022/03/23 03:02:44;;;;;;;;;;;;;;;-144.19;100.00;79077.91;5042734;28;19951;-83
2022/03/23 03:05:11;;;;;;;;;;;;;;;-144.19;100.00;79075.94;5041069;28;19925;-83
2022/03/23 03:10:23;;;;;;;;;;;;;;;-144.19;100.00;79052.31;5040163;28;20040;-83
2022/03/23 03:12:50;;;;;;;;;;;;;;;-144.19;100.00;79068.06;5037708;28;19964;-83
2022/03/23 03:15:17;;;;;;;;;;;;;;;-144.19;100.00;79087.78;5037423;28;19935;-83
2022/03/23 03:17:44;;;;;;;;;;;;;;;-144.19;100.00;79089.72;5030827;28;19949;-83
2022/03/23 03:20:10;;;;;;;;;;;;;;;-144.19;100.00;79083.81;5016514;28;19933;-83
2022/03/23 03:22:40;;;;;;;;;;;;;;;-144.19;100.00;79081.84;5017897;28;20016;-83
2022/03/23 03:25:07;;;;;;;;;;;;;;;-144.19;100.00;79079.88;5026534;28;19932;-84
2022/03/23 03:27:36;;;;;;;;;;;;;;;-144.19;100.00;79083.81;5024287;28;19930;-83
2022/03/23 03:30:04;;;;;;;;;;;;;;;-144.19;100.00;79083.81;5026545;28;19929;-83
2022/03/23 03:32:30;;;;;;;;;;;;;;;-144.19;100.00;79087.78;5026554;28;19932;-83
2022/03/23 03:34:57;;;;;;;;;;;;;;;-144.19;100.00;79115.34;5026726;28;19925;-83
2022/03/23 03:37:23;;;;;;;;;;;;;;;-144.19;100.00;79123.22;5005896;28;19925;-83
2022/03/23 03:39:50;;;;;;;;;;;;;;;-144.19;100.00;79117.31;4998243;28;19926;-83
2022/03/23 03:42:17;;;;;;;;;;;;;;;-144.19;100.00;79115.34;4996699;28;19932;-83
2022/03/23 03:44:44;;;;;;;;;;;;;;;-144.19;100.00;79121.25;4998208;28;19925;-83
2022/03/23 03:47:10;;;;;;;;;;;;;;;-144.19;100.00;79111.41;4995974;28;19925;-83
2022/03/23 03:49:37;;;;;;;;;;;;;;;-144.19;100.00;79115.34;4995462;28;19933;-83
2022/03/23 03:52:04;;;;;;;;;;;;;;;-144.19;100.00;79135.03;4996328;28;19925;-83
2022/03/23 03:54:31;;;;;;;;;;;;;;;-144.19;100.00;79142.91;5007881;28;19926;-83
2022/03/23 03:56:57;;;;;;;;;;;;;;;-144.19;100.00;79168.53;5005637;28;19932;-84
2022/03/23 03:59:23;;;;;;;;;;;;;;;-144.19;100.00;79170.50;5004453;28;19932;-84
2022/03/23 04:01:50;;;;;;;;;;;;;;;-144.19;100.00;79170.50;5003913;28;19932;-83
2022/03/23 04:04:16;;;;;;;;;;;;;;;-144.19;100.00;79178.38;5003088;28;19933;-83
2022/03/23 04:06:43;;;;;;;;;;;;;;;-144.19;100.00;79182.31;5004454;28;19932;-83
2022/03/23 04:09:09;;;;;;;;;;;;;;;-144.19;100.00;79178.38;5003593;28;20380;-83
2022/03/23 04:11:35;;;;;;;;;;;;;;;-144.19;100.00;79178.38;5013074;28;19936;-83
2022/03/23 04:14:02;;;;;;;;;;;;;;;-144.19;100.00;79178.38;5014666;28;19939;-83
2022/03/23 04:16:28;;;;;;;;;;;;;;;-144.19;100.00;79186.25;5014776;28;19926;-83
2022/03/23 04:18:55;;;;;;;;;;;;;;;-144.19;100.00;79194.13;5012421;28;20094;-83
2022/03/23 04:21:21;;;;;;;;;;;;;;;-144.19;100.00;79205.94;5012002;28;19926;-83
2022/03/23 04:23:47;;;;;;;;;;;;;;;-144.19;100.00;79186.25;5011523;28;19925;-83
2022/03/23 04:26:14;;;;;;;;;;;;;;;-144.19;100.00;79209.88;5013807;28;19932;-83
2022/03/23 04:28:40;;;;;;;;;;;;;;;-144.19;100.00;79194.13;5010252;28;19996;-83
2022/03/23 04:31:07;;;;;;;;;;;;;;;-144.19;100.00;79202.00;5013092;28;19930;-84
2022/03/23 04:33:33;;;;;;;;;;;;;;;-144.19;100.00;79241.41;5011852;28;21098;-83
2022/03/23 04:35:59;;;;;;;;;;;;;;;-144.19;100.00;79249.28;5021636;28;20388;-83
2022/03/23 04:38:26;;;;;;;;;;;;;;;-144.19;100.00;79241.41;5020798;28;19926;-83
2022/03/23 04:40:54;;;;;;;;;;;;;;;-144.19;100.00;79251.25;5022633;28;19932;-83
2022/03/23 04:43:20;;;;;;;;;;;;;;;-144.19;100.00;79241.41;5022083;28;19932;-83
2022/03/23 04:45:46;;;;;;;;;;;;;;;-144.19;100.00;79223.69;5025435;28;19929;-83
2022/03/23 04:48:13;;;;;;;;;;;;;;;-144.19;100.00;79245.34;5023876;28;19926;-83
2022/03/23 04:50:40;;;;;;;;;;;;;;;-144.19;100.00;79221.72;5025213;28;19925;-83
2022/03/23 04:53:06;;;;;;;;;;;;;;;-144.19;100.00;79194.13;5019014;22;19926;-94
2022/03/23 04:55:33;;;;;;;;;;;;;;;-144.19;100.00;79202.00;4992228;28;19932;-91
2022/03/23 04:58:00;;;;;;;;;;;;;;;-144.19;100.00;79233.53;4991987;28;20414;-91
2022/03/23 05:00:40;;;;;;;;;;;;;;;-144.19;100.00;79243.38;4992021;28;20025;-91
2022/03/23 05:03:07;;;;;;;;;;;;;;;-144.19;100.00;79243.38;4992235;28;20300;-91
2022/03/23 05:05:33;;;;;;;;;;;;;;;-144.19;100.00;79272.91;4992057;28;19926;-91
2022/03/23 05:08:00;;;;;;;;;;;;;;;-144.19;100.00;79286.72;4991767;28;19926;-91
2022/03/23 05:10:27;;;;;;;;;;;;;;;-144.19;100.00;79284.75;4992148;28;20583;-91
2022/03/23 05:12:54;;;;;;;;;;;;;;;-144.19;100.00;79286.72;4993323;28;19926;-91
2022/03/23 05:15:20;;;;;;;;;;;;;;;-144.19;100.00;79286.72;4992090;28;19925;-91
2022/03/23 05:17:46;;;;;;;;;;;;;;;-144.19;100.00;79316.25;4991510;28;20299;-91
2022/03/23 05:20:18;;;;;;;;;;;;;;;-144.19;100.00;79320.19;4991574;28;19925;-90
2022/03/23 05:22:44;;;;;;;;;;;;;;;-144.19;100.00;79337.91;4991939;28;19988;-90
2022/03/23 05:25:12;;;;;;;;;;;;;;;-144.19;100.00;79347.78;4992039;28;20745;-93
2022/03/23 05:27:39;;;;;;;;;;;;;;;-144.19;100.00;79343.81;4991667;28;20567;-93
2022/03/23 05:30:07;;;;;;;;;;;;;;;-144.19;100.00;79324.13;4991933;28;19936;-91
2022/03/23 05:32:34;;;;;;;;;;;;;;;-144.19;100.00;79316.25;4991748;28;19932;-91
2022/03/23 05:35:00;;;;;;;;;;;;;;;-144.19;100.00;79308.38;4992768;28;19926;-91
2022/03/23 05:37:26;;;;;;;;;;;;;;;-144.19;100.00;79302.47;4992269;28;19926;-90
2022/03/23 05:39:53;;;;;;;;;;;;;;;-144.19;100.00;79300.50;4992470;28;19926;-90
2022/03/23 05:42:19;;;;;;;;;;;;;;;-144.19;100.00;79284.75;4992056;28;19925;-90
2022/03/23 05:44:46;;;;;;;;;;;;;;;-144.19;100.00;79270.94;4981746;28;19963;-90
2022/03/23 05:47:17;;;;;;;;;;;;;;;-144.19;100.00;79261.09;4980928;28;20001;-90
2022/03/23 05:49:43;;;;;;;;;;;;;;;-144.19;100.00;79253.22;4996214;28;19925;-90
2022/03/23 05:52:10;;;;;;;;;;;;;;;-144.19;100.00;79292.63;4995842;28;20033;-90
2022/03/23 05:54:38;;;;;;;;;;;;;;;-144.19;100.00;79296.56;4995959;28;19929;-90
2022/03/23 05:57:05;;;;;;;;;;;;;;;-144.19;100.00;79298.53;4993115;28;20332;-90
2022/03/23 05:59:32;;;;;;;;;;;;;;;-144.19;100.00;79320.19;4976636;28;19937;-90
2022/03/23 06:01:59;;;;;;;;;;;;;;;-144.19;100.00;79314.28;4976408;28;20020;-91
2022/03/23 06:04:26;;;;;;;;;;;;;;;-144.19;100.00;79314.28;4976682;28;19930;-91
2022/03/23 06:06:52;;;;;;;;;;;;;;;-144.19;100.00;79324.13;4976104;28;19926;-91
2022/03/23 06:09:19;;;;;;;;;;;;;;;-144.19;100.00;79332.00;4976250;28;19926;-91
2022/03/23 06:11:46;;;;;;;;;;;;;;;-144.19;100.00;79324.13;4976706;28;19930;-91
2022/03/23 06:14:12;;;;;;;;;;;;;;;-144.19;100.00;79328.06;4977331;28;20016;-91
2022/03/23 06:16:39;;;;;;;;;;;;;;;-144.19;100.00;79320.19;4976674;28;19933;-90
2022/03/23 06:19:05;;;;;;;;;;;;;;;-144.19;100.00;79302.47;4979924;28;20013;-90
2022/03/23 06:21:31;;;;;;;;;;;;;;;-144.19;100.00;79296.56;5015366;28;19936;-90
2022/03/23 06:23:57;;;;;;;;;;;;;;;-144.19;100.00;79282.75;4995076;28;20372;-91
2022/03/23 06:26:24;;;;;;;;;;;;;;;-144.19;100.00;79272.91;4997294;28;19926;-91
2022/03/23 06:28:50;;;;;;;;;;;;;;;-144.19;100.00;79268.97;4992283;28;19933;-91
2022/03/23 06:31:17;;;;;;;;;;;;;;;-144.19;100.00;79259.13;4984668;28;19936;-91
2022/03/23 06:33:43;;;;;;;;;;;;;;;-144.19;100.00;79253.22;4982756;28;19926;-90
2022/03/23 06:36:09;;;;;;;;;;;;;;;-144.19;100.00;79233.53;4986695;28;19929;-91
2022/03/23 06:38:36;;;;;;;;;;;;;;;-144.19;100.00;79219.72;4986964;28;19926;-91
2022/03/23 06:41:03;;;;;;;;;;;;;;;-144.19;100.00;79194.13;5010761;28;19926;-91
2022/03/23 06:43:29;;;;;;;;;;;;;;;-144.19;100.00;79176.41;4991529;28;19930;-91
2022/03/23 06:45:56;;;;;;;;;;;;;;;-144.19;100.00;79158.69;4989956;28;20408;-91
2022/03/23 06:48:22;;;;;;;;;;;;;;;-144.19;100.00;79138.97;4982951;28;19933;-91
2022/03/23 06:50:49;;;;;;;;;;;;;;;-144.19;100.00;79123.22;4984785;28;20451;-92
2022/03/23 06:53:15;;;;;;;;;;;;;;;-144.19;100.00;79115.34;4984470;28;20311;-89
2022/03/23 06:55:42;;;;;;;;;;;;;;;-144.19;100.00;79087.78;4983442;28;19932;-91
2022/03/23 06:58:08;;;;;;;;;;;;;;;-144.19;100.00;79079.88;4985828;28;19926;-91
2022/03/23 07:00:34;;;;;;;;;;;;;;;-144.19;100.00;79068.06;4984095;28;19926;-90
2022/03/23 07:03:02;;;;;;;;;;;;;;;-144.19;100.00;79036.56;4985478;28;19988;-92
2022/03/23 07:05:29;;;;;;;;;;;;;;;-144.19;100.00;79032.63;4985652;28;19926;-92
2022/03/23 07:10:41;;;;;;;;;;;;;;;-144.19;100.00;79040.50;4986403;28;19945;-92
2022/03/23 07:13:07;;;;;;;;;;;;;;;-144.19;100.00;79032.63;4981322;28;19937;-92
2022/03/23 07:15:34;;;;;;;;;;;;;;;-144.19;100.00;79020.81;4976570;28;19998;-92
2022/03/23 07:18:00;;;;;;;;;;;;;;;-144.19;100.00;79012.91;4994435;28;19929;-90
2022/03/23 07:20:27;;;;;;;;;;;;;;;-144.19;100.00;79001.09;4994741;28;19952;-91
2022/03/23 07:22:54;;;;;;;;;;;;;;;-144.19;100.00;78963.69;4995007;28;20436;-91
2022/03/23 07:25:20;;;;;;;;;;;;;;;-144.19;100.00;78936.09;4988716;28;19926;-91
2022/03/23 07:27:47;;;;;;;;;;;;;;;-144.19;100.00;78914.44;4976949;28;19930;-91
2022/03/23 07:30:13;;;;;;;;;;;;;;;-144.19;100.00;78898.69;4977070;28;19954;-92
2022/03/23 07:32:40;;;;;;;;;;;;;;;-144.19;100.00;78877.03;4976672;28;19926;-90
2022/03/23 07:35:07;;;;;;;;;;;;;;;-144.19;100.00;78855.34;4989136;28;19933;-92
2022/03/23 07:37:34;;;;;;;;;;;;;;;-144.19;100.00;78835.66;4995123;28;20395;-92
2022/03/23 07:40:00;;;;;;;;;;;;;;;-144.19;100.00;78800.22;4996465;28;19932;-92
2022/03/23 07:42:30;;;;;;;;;;;;;;;-144.19;100.00;78790.38;4995028;28;20385;-92
2022/03/23 07:44:56;;;;;;;;;;;;;;;-144.19;100.00;78784.44;4994081;28;19948;-91
2022/03/23 07:47:22;;;;;;;;;;;;;;;-144.19;100.00;78764.75;4994197;28;20399;-92
2022/03/23 07:49:49;;;;;;;;;;;;;;;-144.19;100.00;78747.03;4994470;28;19932;-91
2022/03/23 07:52:15;;;;;;;;;;;;;;;-144.19;100.00;78741.13;4994614;28;19948;-89
2022/03/23 07:54:41;;;;;;;;;;;;;;;-144.19;100.00;78725.38;4996886;28;19925;-92
2022/03/23 07:57:08;;;;;;;;;;;;;;;-144.19;100.00;78701.72;4997398;28;19921;-89
2022/03/23 07:59:34;;;;;;;;;;;;;;;-144.19;100.00;78691.88;4993638;28;20017;-92
2022/03/23 08:02:00;;;;;;;;;;;;;;;-144.19;100.00;78680.06;4974394;28;19930;-91
2022/03/23 08:04:27;;;;;;;;;;;;;;;-144.19;100.00;78670.22;4980924;28;19982;-92
2022/03/23 08:06:53;;;;;;;;;;;;;;;-144.19;100.00;78654.47;4987761;28;19989;-91
2022/03/23 08:09:20;;;;;;;;;;;;;;;-144.19;100.00;78634.78;4983801;28;19926;-92
2022/03/23 08:11:46;;;;;;;;;;;;;;;-144.19;100.00;78619.03;4983495;28;19930;-92
2022/03/23 08:14:12;;;;;;;;;;;;;;;-144.19;100.00;78611.13;4981837;28;19933;-91
2022/03/23 08:16:39;;;;;;;;;;;;;;;-144.19;100.00;78599.31;4982537;28;19949;-92
2022/03/23 08:19:05;;;;;;;;;;;;;;;-144.19;100.00;78579.63;4982885;28;20020;-92
2022/03/23 08:21:34;;;;;;;;;;;;;;;-144.19;100.00;78567.81;4984037;28;19941;-92
2022/03/23 08:24:04;;;;;;;;;;;;;;;-144.19;100.00;78548.13;4990063;28;20016;-92
2022/03/23 08:26:30;;;;;;;;;;;;;;;-144.19;100.00;78538.28;4987216;28;19952;-91
2022/03/23 08:28:57;;;;;;;;;;;;;;;-144.19;100.00;78520.56;4994197;28;19930;-92
2022/03/23 08:31:23;;;;;;;;;;;;;;;-144.19;99.81;78496.91;4995069;28;19926;-93
2022/03/23 08:33:50;;;;;;;;;;;;;;;-144.19;98.88;78491.00;4990213;28;20013;-91
2022/03/23 08:36:16;;;;;;;;;;;;;;;-144.19;100.00;78485.09;4974767;28;19926;-90
2022/03/23 08:38:42;;;;;;;;;;;;;;;-144.19;97.43;78467.38;4973053;28;20013;-91
2022/03/23 08:41:09;;;;;;;;;;;;;;;-144.19;95.12;78453.59;4974033;28;19936;-92
2022/03/23 08:43:35;;;;;;;;;;;;;;;-144.19;95.21;78441.78;4973125;28;19926;-92
2022/03/23 08:46:02;;;;;;;;;;;;;;;-144.19;92.82;78418.13;4976047;28;19949;-92
2022/03/23 08:48:29;;;;;;;;;;;;;;;-144.19;88.37;78396.47;4974928;28;19950;-91
2022/03/23 08:50:56;;;;;;;;;;;;;;;-144.19;84.80;78394.50;4981861;28;19910;-92
2022/03/23 08:53:26;;;;;;;;;;;;;;;-144.19;85.69;78382.69;4978541;28;19933;-91
2022/03/23 08:55:53;;;;;;;;;;;;;;;-144.19;83.36;78359.06;4974179;28;20028;-92
2022/03/23 08:58:21;;;;;;;;;;;;;;;-144.19;81.36;78351.19;4982383;28;19962;-91
2022/03/23 09:00:48;;;;;;;;;;;;;;;-144.19;82.37;78323.63;4975121;28;19934;-92
2022/03/23 09:03:14;;;;;;;;;;;;;;;-144.19;83.57;78309.84;4987453;28;19932;-93
2022/03/23 09:05:41;;;;;;;;;;;;;;;-144.19;82.22;78305.88;4984257;28;19977;-91
2022/03/23 09:08:08;;;;;;;;;;;;;;;-144.19;82.30;78296.03;4979719;28;19984;-91
2022/03/23 09:10:34;;;;;;;;;;;;;;;-144.19;82.57;78278.31;5007852;28;19989;-92
2022/03/23 09:13:00;;;;;;;;;;;;;;;-144.19;81.12;78264.53;4994759;28;19972;-92
2022/03/23 09:15:27;;;;;;;;;;;;;;;-144.19;79.44;78254.69;4993362;28;19948;-92
2022/03/23 09:18:00;;;;;;;;;;;;;;;-144.19;78.96;78229.09;4992165;28;19926;-91
2022/03/23 09:20:28;;;;;;;;;;;;;;;-144.19;82.08;78197.59;4991827;28;19926;-92
2022/03/23 09:22:55;;;;;;;;;;;;;;;-144.19;77.38;78177.91;5023865;28;20016;-92
2022/03/23 09:25:22;;;;;;;;;;;;;;;-144.19;76.15;78166.06;4991349;28;19932;-91
2022/03/23 09:27:49;;;;;;;;;;;;;;;-144.19;74.52;78146.38;5021337;28;19936;-92
2022/03/23 09:30:16;;;;;;;;;;;;;;;-144.19;75.01;78122.75;4989366;28;19926;-92
2022/03/23 09:32:43;;;;;;;;;;;;;;;-144.19;73.35;78118.81;4980628;28;19977;-91
2022/03/23 09:35:10;;;;;;;;;;;;;;;-144.19;75.25;78087.31;4976690;28;19926;-92
2022/03/23 09:37:47;;;;;;;;;;;;;;;-144.19;72.03;78053.84;4973319;28;19930;-90
2022/03/23 09:40:24;;;;;;;;;;;;;;;-144.19;71.08;78061.72;4972701;28;19926;-92
2022/03/23 09:42:58;;;;;;;;;;;;;;;-144.19;73.12;78032.19;4972487;28;19926;-94
2022/03/23 09:48:02;;;;;;;;;;;;;;;-144.19;72.17;77977.03;4978023;28;19930;-92
2022/03/23 09:50:29;;;;;;;;;;;;;;;-144.19;74.22;77943.56;4983312;28;19929;-92
2022/03/23 09:52:56;;;;;;;;;;;;;;;-144.19;73.49;77933.72;4983720;28;20249;-90
2022/03/23 09:55:23;;;;;;;;;;;;;;;-144.19;74.28;77910.09;4975956;28;19973;-92
2022/03/23 09:57:52;;;;;;;;;;;;;;;-144.19;72.28;77870.72;4983196;28;19932;-91
2022/03/23 10:00:19;;;;;;;;;;;;;;;-144.19;71.09;77851.03;4992053;28;19929;-91
2022/03/23 10:02:56;;;;;;;;;;;;;;;-144.19;70.90;77839.19;4990965;28;20367;-92
2022/03/23 10:05:51;;;;;;;;;;;;;;;-144.19;68.35;77851.03;5023346;28;19933;-91
2022/03/23 10:08:25;;;;;;;;;;;;;;;-144.19;69.31;77803.75;4990927;28;19936;-92
2022/03/23 10:11:11;;;;;;;;;;;;;;;-144.19;69.22;77780.13;4991925;28;19995;-92
2022/03/23 10:13:56;;;;;;;;;;;;;;;-144.19;69.75;77760.44;5023239;28;20311;-91
2022/03/23 10:16:40;;;;;;;;;;;;;;;-144.19;67.88;77740.75;5023350;28;19961;-92
2022/03/23 10:19:06;;;;;;;;;;;;;;;-144.19;66.18;77748.63;4991857;28;19973;-92
2022/03/23 10:21:34;;;;;;;;;;;;;;;-144.19;65.84;77697.44;4990662;28;19925;-92
2022/03/23 10:24:03;;;;;;;;;;;;;;;-144.19;65.84;77663.97;4990519;28;20292;-93
2022/03/23 10:26:31;;;;;;;;;;;;;;;-144.19;64.57;77604.91;5023517;28;19977;-92
2022/03/23 10:28:59;;;;;;;;;;;;;;;-144.19;61.78;77626.56;4990474;28;19980;-92
2022/03/23 10:31:27;;;;;;;;;;;;;;;-144.19;64.33;77535.97;4992123;28;20373;-92
2022/03/23 10:34:07;;;;;;;;;;;;;;;-144.19;57.97;77480.84;4985358;28;19933;-92
2022/03/23 10:36:34;;;;;;;;;;;;;;;-144.19;58.51;77341.06;4975342;28;19926;-91
2022/03/23 10:39:02;;;;;;;;;;;;;;;-144.19;53.36;77461.16;4974769;28;20381;-93
2022/03/23 10:41:30;;;;;;;;;;;;;;;-144.19;54.55;77394.22;4976195;28;20018;-92
2022/03/23 10:43:57;;;;;;;;;;;;;;;-144.19;50.12;77299.72;4975842;28;19980;-91
2022/03/23 10:46:23;;;;;;;;;;;;;;;-144.19;48.19;77356.81;4975292;28;20093;-92
2022/03/23 10:48:59;;;;;;;;;;;;;;;-144.19;49.26;77323.34;4976391;28;19933;-92
2022/03/23 10:51:27;;;;;;;;;;;;;;;-144.19;49.72;77299.72;4974818;28;20006;-92
2022/03/23 10:53:54;;;;;;;;;;;;;;;-144.19;45.86;77256.41;4974646;28;19964;-92
2022/03/23 10:56:30;;;;;;;;;;;;;;;-144.19;48.88;77161.91;4974963;28;20025;-91
2022/03/23 10:59:15;;;;;;;;;;;;;;;-144.19;48.19;77063.47;4993451;28;19926;-92
2022/03/23 11:01:55;;;;;;;;;;;;;;;-144.19;48.47;76949.31;5027622;28;19926;-92
2022/03/23 11:04:21;;;;;;;;;;;;;;;-144.19;42.08;77089.06;5026822;28;19933;-93
2022/03/23 11:06:48;;;;;;;;;;;;;;;-144.19;42.93;77067.41;4994710;28;20297;-92
2022/03/23 11:18:04;;;;;;;;;;;;;;;-144.19;42.51;76921.75;4996241;28;20005;-92
2022/03/23 11:20:51;;;;;;;;;;;;;;;-144.19;38.75;76862.69;4995503;28;19926;-92
2022/03/23 11:23:25;;;;;;;;;;;;;;;-144.19;37.64;76888.28;4993388;28;19925;-92
2022/03/23 11:25:53;;;;;;;;;;;;;;;-144.19;36.70;76740.63;4996771;28;19925;-92
2022/03/23 11:28:26;;;;;;;;;;;;;;;-144.19;35.29;76768.19;5025415;28;20474;-92
2022/03/23 11:30:54;;;;;;;;;;;;;;;-144.19;36.61;76693.38;4996149;28;19926;-91
2022/03/23 11:33:22;;;;;;;;;;;;;;;-144.19;34.92;76654.03;4996409;28;19926;-92
2022/03/23 11:35:49;;;;;;;;;;;;;;;-144.19;34.01;76717.00;4995201;28;19930;-91
2022/03/23 11:38:17;;;;;;;;;;;;;;;-144.19;38.27;76642.22;4993805;28;20303;-92
2022/03/23 11:40:45;;;;;;;;;;;;;;;-144.19;33.68;76748.50;4994258;28;20293;-93
2022/03/23 11:43:12;;;;;;;;;;;;;;;-144.19;35.88;76654.03;5026483;28;20106;-92
2022/03/23 11:45:59;;;;;;;;;;;;;;;-144.19;33.72;76610.72;4994533;28;19930;-93
2022/03/23 11:48:47;;;;;;;;;;;;;;;-144.19;32.55;76630.41;4993993;28;20395;-91
2022/03/23 11:51:13;;;;;;;;;;;;;;;-144.19;35.62;76520.16;4995011;28;19926;-92
2022/03/23 11:53:58;;;;;;;;;;;;;;;-144.19;32.82;76683.53;5026417;28;19926;-91
2022/03/23 11:56:35;;;;;;;;;;;;;;;-144.19;32.95;76543.78;4996033;28;19932;-93
2022/03/23 11:59:16;;;;;;;;;;;;;;;-144.19;32.78;76610.72;5011662;28;19936;-92
2022/03/23 12:01:43;;;;;;;;;;;;;;;-144.19;32.28;76516.22;4994331;28;20300;-92
2022/03/23 12:04:12;;;;;;;;;;;;;;;-144.19;31.19;76472.94;4994428;28;19929;-92
2022/03/23 12:06:44;;;;;;;;;;;;;;;-144.19;33.32;76528.03;4995116;28;20285;-91
2022/03/23 12:09:31;;;;;;;;;;;;;;;-144.19;31.37;76496.53;4996895;28;20376;-92
2022/03/23 12:11:57;;;;;;;;;;;;;;;-144.19;32.94;76510.31;4996033;28;19976;-93
2022/03/23 12:14:31;;;;;;;;;;;;;;;-144.19;32.03;76343.03;4995685;28;19926;-93
2022/03/23 12:16:57;;;;;;;;;;;;;;;-144.19;31.07;76539.84;5010997;28;19936;-91
2022/03/23 12:19:52;;;;;;;;;;;;;;;-144.19;30.45;76429.63;4993836;28;19932;-93
2022/03/23 12:22:31;;;;;;;;;;;;;;;-144.19;29.84;76388.28;4994734;28;19930;-93
2022/03/23 12:25:08;;;;;;;;;;;;;;;-144.19;29.95;76445.38;4994076;28;19933;-93
2022/03/23 12:27:53;;;;;;;;;;;;;;;-144.19;29.75;76421.75;4994993;28;19926;-91
2022/03/23 12:30:26;;;;;;;;;;;;;;;-144.19;30.11;76441.44;4994217;28;19925;-92
2022/03/23 12:33:00;;;;;;;;;;;;;;;-144.19;29.96;76642.22;4993748;28;19932;-93
2022/03/23 12:35:30;;;;;;;;;;;;;;;-144.19;29.71;76520.16;4976832;28;19932;-92
2022/03/23 12:37:57;;;;;;;;;;;;;;;-144.19;29.43;76610.72;4973792;28;19930;-92
2022/03/23 12:40:35;;;;;;;;;;;;;;;-144.19;31.30;76713.06;4975594;28;19926;-92
2022/03/23 12:43:02;;;;;;;;;;;;;;;-144.19;30.84;76659.94;4973113;28;19932;-92
2022/03/23 12:45:33;;;;;;;;;;;;;;;-144.19;31.50;76746.53;4973038;28;19937;-92
2022/03/23 12:48:04;;;;;;;;;;;;;;;-144.19;31.52;76687.47;4974858;28;19930;-91
2022/03/23 12:59:17;;;;;;;;;;;;;;;-144.19;31.74;76778.03;4983671;28;19933;-92
2022/03/23 13:01:43;;;;;;;;;;;;;;;-144.19;32.76;76768.19;4982488;28;20316;-92